Time;durP1;ratioP1;P1;durP2;ratioP2;P2;SDS_P1;SDS_P2;PMS_P1;PMS_P2;Temp;Humidity;BMP_temperature;BMP_pressure;BME280_temperature;BME280_humidity;BME280_pressure;Samples;Min_cycle;Max_cycle;Signal;HPM_P1;HPM_P2
2021/10/02 00:02:00;;;;;;;1999.90;999.90;;;;;;;10.25;76.98;96488.50;5029002;28;20691;-70
2021/10/02 00:37:51;;;;;;;1999.90;999.90;;;;;;;10.46;77.00;96470.22;5033529;27;20207;-70
2021/10/02 00:45:50;;;;;;;1999.90;999.90;;;;;;;10.50;76.39;96460.84;5028382;28;20189;-70
2021/10/02 00:48:18;;;;;;;1999.90;999.90;;;;;;;10.54;76.14;96467.84;5028552;28;20278;-70
2021/10/02 00:50:45;;;;;;;1999.90;999.90;;;;;;;10.55;76.37;96459.00;5028299;28;20190;-70
2021/10/02 00:53:14;;;;;;;1999.90;999.90;;;;;;;10.49;76.57;96456.69;5028284;28;20218;-70
2021/10/02 00:55:41;;;;;;;1999.90;999.90;;;;;;;10.51;76.47;96455.38;5028146;28;20194;-70
2021/10/02 00:58:08;;;;;;;1999.90;999.90;;;;;;;10.57;76.08;96449.09;5028125;28;20202;-70
2021/10/02 01:00:36;;;;;;;1999.90;999.90;;;;;;;10.55;75.87;96448.59;5028118;28;20245;-70
2021/10/02 01:03:10;;;;;;;1999.90;999.90;;;;;;;10.57;75.94;96445.72;5028184;28;20201;-70
2021/10/02 01:05:56;;;;;;;1999.90;999.90;;;;;;;10.53;75.90;96444.72;5027675;28;20193;-70
2021/10/02 01:08:35;;;;;;;1999.90;999.90;;;;;;;10.48;76.29;96447.34;5028312;28;20194;-70
2021/10/02 01:11:19;;;;;;;1999.90;999.90;;;;;;;10.41;76.84;96442.44;5027947;28;20245;-70
2021/10/02 01:13:58;;;;;;;1999.90;999.90;;;;;;;10.24;77.40;96432.41;5028358;28;20568;-70
2021/10/02 01:16:30;;;;;;;1999.90;999.90;;;;;;;10.15;77.29;96433.19;5027909;28;20181;-70
2021/10/02 01:19:12;;;;;;;1999.90;999.90;;;;;;;10.21;77.59;96437.34;5028193;28;20193;-69
2021/10/02 01:21:53;;;;;;;1999.90;999.90;;;;;;;10.07;77.61;96431.13;5027843;28;20186;-70
2021/10/02 01:25:03;;;;;;;1999.90;999.90;;;;;;;9.90;78.37;96424.47;5028044;28;20282;-70
2021/10/02 01:27:55;;;;;;;1999.90;999.90;;;;;;;9.90;78.38;96424.47;5027601;28;20205;-71
2021/10/02 01:30:36;;;;;;;1999.90;999.90;;;;;;;9.83;78.17;96423.19;5027757;28;20190;-70
2021/10/02 01:33:17;;;;;;;1999.90;999.90;;;;;;;9.66;79.74;96427.91;5027620;28;20951;-70
2021/10/02 01:35:53;;;;;;;1999.90;999.90;;;;;;;9.59;80.47;96419.63;5027651;28;20577;-70
2021/10/02 01:49:28;;;;;;;1999.90;999.90;;;;;;;9.24;81.45;96418.66;5011842;28;20230;-70
2021/10/02 01:51:58;;;;;;;1999.90;999.90;;;;;;;9.24;81.74;96418.66;5027367;28;20237;-70
2021/10/02 01:54:27;;;;;;;1999.90;999.90;;;;;;;9.13;82.48;96422.28;5027382;28;20198;-70
2021/10/02 01:56:55;;;;;;;1999.90;999.90;;;;;;;9.09;82.75;96418.66;5027365;28;20220;-70
2021/10/02 01:59:27;;;;;;;1999.90;999.90;;;;;;;9.06;82.72;96419.19;5027612;28;20259;-70
2021/10/02 02:01:55;;;;;;;1999.90;999.90;;;;;;;8.97;82.83;96418.91;5024132;28;20309;-70
2021/10/02 02:04:24;;;;;;;1999.90;999.90;;;;;;;8.83;84.18;96417.09;5024573;28;20608;-70
2021/10/02 02:06:52;;;;;;;1999.90;999.90;;;;;;;8.72;84.85;96411.13;5026376;28;20254;-70
2021/10/02 02:09:21;;;;;;;1999.90;999.90;;;;;;;8.70;84.79;96420.22;5026974;28;20225;-70
2021/10/02 02:11:48;;;;;;;1999.90;999.90;;;;;;;8.62;85.41;96417.09;5027021;28;20647;-70
2021/10/02 02:14:17;;;;;;;1999.90;999.90;;;;;;;8.57;85.75;96413.72;5027500;28;20201;-70
2021/10/02 02:16:48;;;;;;;1999.90;999.90;;;;;;;8.55;85.16;96411.41;5026893;28;20581;-70
2021/10/02 02:19:18;;;;;;;1999.90;999.90;;;;;;;8.45;85.90;96416.56;5026404;28;20243;-70
2021/10/02 02:21:46;;;;;;;1999.90;999.90;;;;;;;8.41;86.08;96420.72;5026876;28;20190;-70
2021/10/02 02:24:13;;;;;;;1999.90;999.90;;;;;;;8.45;86.06;96420.97;5026863;28;20233;-70
2021/10/02 02:26:41;;;;;;;1999.90;999.90;;;;;;;8.28;86.66;96418.56;5027286;28;20202;-70
2021/10/02 02:29:09;;;;;;;1999.90;999.90;;;;;;;8.30;86.72;96418.34;5026761;28;20204;-71
2021/10/02 02:31:39;;;;;;;1999.90;999.90;;;;;;;8.35;86.66;96415.75;5026810;28;20227;-70
2021/10/02 02:34:07;;;;;;;1999.90;999.90;;;;;;;8.27;87.22;96413.66;5027030;28;20190;-70
2021/10/02 02:36:34;;;;;;;1999.90;999.90;;;;;;;8.35;86.54;96416.53;5026974;28;20738;-70
2021/10/02 02:39:02;;;;;;;1999.90;999.90;;;;;;;8.33;86.81;96420.41;5026898;28;20274;-70
2021/10/02 02:41:29;;;;;;;1999.90;999.90;;;;;;;8.22;87.20;96416.97;5026930;28;20254;-70
2021/10/02 02:43:56;;;;;;;1999.90;999.90;;;;;;;8.23;87.12;96411.56;5026805;28;20571;-70
2021/10/02 02:46:28;;;;;;;1999.90;999.90;;;;;;;8.19;87.29;96413.09;5026481;28;20681;-70
2021/10/02 02:48:59;;;;;;;1999.90;999.90;;;;;;;8.18;87.19;96415.94;5026495;28;20213;-70
2021/10/02 02:51:34;;;;;;;1999.90;999.90;;;;;;;8.19;86.64;96417.50;5026598;28;20182;-70
2021/10/02 02:54:11;;;;;;;1999.90;999.90;;;;;;;8.17;87.34;96420.34;5026395;28;20629;-70
2021/10/02 02:56:43;;;;;;;1999.90;999.90;;;;;;;8.07;87.02;96412.53;5026677;28;20246;-70
2021/10/02 02:59:16;;;;;;;1999.90;999.90;;;;;;;8.12;87.80;96415.13;5026620;28;20194;-70
2021/10/02 03:01:45;;;;;;;1999.90;999.90;;;;;;;8.09;87.31;96413.06;5026397;28;20317;-70
2021/10/02 03:04:16;;;;;;;1999.90;999.90;;;;;;;8.09;87.56;96410.47;5026170;28;20261;-70
2021/10/02 03:06:48;;;;;;;1999.90;999.90;;;;;;;8.01;88.02;96405.03;5026277;28;20186;-70
2021/10/02 03:09:16;;;;;;;1999.90;999.90;;;;;;;8.03;87.87;96401.13;5026023;28;20185;-70
2021/10/02 03:11:46;;;;;;;1999.90;999.90;;;;;;;8.13;87.54;96410.75;5026545;28;20219;-70
2021/10/02 03:14:17;;;;;;;1999.90;999.90;;;;;;;8.13;86.64;96403.75;5026174;28;20760;-70
2021/10/02 03:16:47;;;;;;;1999.90;999.90;;;;;;;8.07;87.04;96406.59;5026129;28;20215;-70
2021/10/02 03:19:15;;;;;;;1999.90;999.90;;;;;;;7.99;87.23;96407.84;5026020;28;20197;-70
2021/10/02 03:21:45;;;;;;;1999.90;999.90;;;;;;;8.05;86.98;96406.06;5026366;28;20194;-70
2021/10/02 03:24:16;;;;;;;1999.90;999.90;;;;;;;8.04;87.02;96404.50;5026126;28;20214;-70
2021/10/02 03:26:44;;;;;;;1999.90;999.90;;;;;;;7.90;87.35;96406.00;5026399;28;20662;-70
2021/10/02 03:29:11;;;;;;;1999.90;999.90;;;;;;;7.66;87.63;96403.06;5026955;28;20677;-70
2021/10/02 03:31:39;;;;;;;1999.90;999.90;;;;;;;7.29;87.90;96403.91;5029444;28;20206;-70
2021/10/02 03:34:06;;;;;;;1999.90;999.90;;;;;;;7.15;88.88;96402.00;5029360;28;20254;-70
2021/10/02 03:36:34;;;;;;;1999.90;999.90;;;;;;;7.13;88.95;96406.63;5029355;28;20205;-70
2021/10/02 03:39:03;;;;;;;1999.90;999.90;;;;;;;7.11;89.85;96408.69;5029384;28;20202;-70
2021/10/02 03:41:30;;;;;;;1999.90;999.90;;;;;;;7.08;90.13;96399.63;5029558;28;20289;-70
2021/10/02 03:43:57;;;;;;;1999.90;999.90;;;;;;;6.93;91.07;96410.63;5029255;28;20198;-70
2021/10/02 03:46:24;;;;;;;1999.90;999.90;;;;;;;6.98;90.91;96406.53;5029492;28;20264;-70
2021/10/02 03:48:52;;;;;;;1999.90;999.90;;;;;;;6.89;91.71;96401.81;5029570;28;20237;-70
2021/10/02 03:51:19;;;;;;;1999.90;999.90;;;;;;;6.93;91.58;96399.50;5029144;28;20202;-70
2021/10/02 03:53:46;;;;;;;1999.90;999.90;;;;;;;6.91;91.16;96397.19;5029384;28;20282;-70
2021/10/02 03:56:15;;;;;;;1999.90;999.90;;;;;;;6.87;90.97;96408.28;5029490;28;20579;-70
2021/10/02 03:58:42;;;;;;;1999.90;999.90;;;;;;;6.86;90.96;96399.75;5028977;28;20271;-70
2021/10/02 04:01:10;;;;;;;1999.90;999.90;;;;;;;6.77;91.22;96401.22;5029224;28;20198;-70
2021/10/02 04:03:37;;;;;;;1999.90;999.90;;;;;;;6.69;91.59;96406.03;5028999;28;20261;-70
2021/10/02 04:06:04;;;;;;;1999.90;999.90;;;;;;;6.61;91.63;96403.91;5028793;28;20233;-70
2021/10/02 04:08:31;;;;;;;1999.90;999.90;;;;;;;6.44;91.02;96406.59;5028911;28;20210;-70
2021/10/02 04:11:02;;;;;;;1999.90;999.90;;;;;;;6.36;90.64;96409.63;5028726;28;20267;-70
2021/10/02 04:13:31;;;;;;;1999.90;999.90;;;;;;;6.26;89.67;96409.53;5029197;28;20187;-70
2021/10/02 04:15:58;;;;;;;1999.90;999.90;;;;;;;6.17;88.75;96400.66;5029013;28;20628;-70
2021/10/02 04:18:25;;;;;;;1999.90;999.90;;;;;;;5.96;88.68;96408.19;5028702;28;20738;-69
2021/10/02 04:20:52;;;;;;;1999.90;999.90;;;;;;;5.79;88.86;96406.63;5029017;28;20202;-70
2021/10/02 04:23:19;;;;;;;1999.90;999.90;;;;;;;5.78;89.99;96405.09;5028822;28;20205;-70
2021/10/02 04:25:46;;;;;;;1999.90;999.90;;;;;;;5.75;90.16;96413.31;5028617;28;20316;-70
2021/10/02 04:28:13;;;;;;;1999.90;999.90;;;;;;;5.61;90.15;96412.88;5028967;28;20206;-70
2021/10/02 04:30:43;;;;;;;1999.90;999.90;;;;;;;5.67;90.37;96408.56;5028556;28;20220;-70
2021/10/02 04:33:10;;;;;;;1999.90;999.90;;;;;;;5.65;91.21;96413.97;5028820;28;20222;-70
2021/10/02 04:35:37;;;;;;;1999.90;999.90;;;;;;;5.73;91.35;96416.09;5028333;28;20220;-70
2021/10/02 04:38:04;;;;;;;1999.90;999.90;;;;;;;5.80;91.92;96413.38;5028840;28;20648;-70
2021/10/02 04:40:31;;;;;;;1999.90;999.90;;;;;;;5.78;91.46;96420.56;5027282;28;20209;-70
2021/10/02 04:42:58;;;;;;;1999.90;999.90;;;;;;;5.72;91.93;96418.94;5028222;28;20677;-70
2021/10/02 04:45:26;;;;;;;1999.90;999.90;;;;;;;5.76;92.03;96420.81;5028437;28;20236;-69
2021/10/02 04:47:54;;;;;;;1999.90;999.90;;;;;;;5.82;91.41;96413.91;5028247;28;20212;-71
2021/10/02 04:50:21;;;;;;;1999.90;999.90;;;;;;;5.81;91.63;96418.28;5028400;28;20206;-71
2021/10/02 04:52:50;;;;;;;1999.90;999.90;;;;;;;5.81;91.34;96422.66;5028387;28;20201;-70
2021/10/02 04:55:17;;;;;;;1999.90;999.90;;;;;;;5.75;91.17;96423.63;5028333;28;20201;-70
2021/10/02 04:57:44;;;;;;;1999.90;999.90;;;;;;;5.83;91.30;96418.81;5028403;28;20624;-70
2021/10/02 05:00:11;;;;;;;1999.90;999.90;;;;;;;5.82;91.63;96413.91;5028228;28;20209;-70
2021/10/02 05:02:38;;;;;;;1999.90;999.90;;;;;;;5.81;92.11;96412.34;5028422;28;20227;-70
2021/10/02 05:05:07;;;;;;;1999.90;999.90;;;;;;;5.79;93.14;96414.38;5028295;28;20705;-71
2021/10/02 05:07:35;;;;;;;1999.90;999.90;;;;;;;5.76;93.58;96418.22;5027883;28;20233;-70
2021/10/02 05:10:02;;;;;;;1999.90;999.90;;;;;;;5.82;94.11;96419.84;5027971;28;20295;-70
2021/10/02 05:12:29;;;;;;;1999.90;999.90;;;;;;;5.79;94.25;96417.75;5028368;28;20643;-70
2021/10/02 05:14:56;;;;;;;1999.90;999.90;;;;;;;5.87;95.46;96424.31;5027858;28;20251;-70
2021/10/02 05:17:23;;;;;;;1999.90;999.90;;;;;;;6.03;95.38;96420.88;5028173;28;20579;-70
2021/10/02 05:19:51;;;;;;;1999.90;999.90;;;;;;;6.17;95.50;96418.72;5028383;28;20205;-70
2021/10/02 05:22:20;;;;;;;1999.90;999.90;;;;;;;6.33;95.69;96423.00;5028280;28;20205;-70
2021/10/02 05:24:47;;;;;;;1999.90;999.90;;;;;;;6.60;94.64;96421.22;5027688;28;20222;-71
2021/10/02 05:27:14;;;;;;;1999.90;999.90;;;;;;;6.70;94.49;96423.88;5026822;28;20201;-70
2021/10/02 05:29:43;;;;;;;1999.90;999.90;;;;;;;6.89;94.12;96430.25;5027608;28;20209;-70
2021/10/02 05:32:12;;;;;;;1999.90;999.90;;;;;;;7.09;93.75;96437.38;5027581;28;20215;-70
2021/10/02 05:34:39;;;;;;;1999.90;999.90;;;;;;;7.28;92.76;96425.59;5027373;28;20241;-70
2021/10/02 05:37:06;;;;;;;1999.90;999.90;;;;;;;7.50;92.45;96424.72;5027434;28;20198;-70
2021/10/02 05:39:35;;;;;;;1999.90;999.90;;;;;;;8.43;88.67;96426.38;5027527;28;20589;-70
2021/10/02 05:42:02;;;;;;;1999.90;999.90;;;;;;;9.47;82.29;96428.47;5027254;28;20201;-70
2021/10/02 05:44:30;;;;;;;1999.90;999.90;;;;;;;10.53;78.02;96426.50;5027113;28;20229;-70
2021/10/02 05:46:57;;;;;;;1999.90;999.90;;;;;;;11.68;72.35;96437.00;5027233;28;20201;-71
2021/10/02 05:49:24;;;;;;;1999.90;999.90;;;;;;;12.75;67.54;96436.50;5027477;28;20254;-70
2021/10/02 05:51:51;;;;;;;1999.90;999.90;;;;;;;13.42;63.11;96435.19;5026959;28;20662;-71
2021/10/02 05:54:18;;;;;;;1999.90;999.90;;;;;;;13.78;61.51;96433.50;5027064;28;20223;-71
2021/10/02 05:56:47;;;;;;;1999.90;999.90;;;;;;;13.69;61.51;96442.28;5027115;28;20270;-70
2021/10/02 05:59:14;;;;;;;1999.90;999.90;;;;;;;13.29;62.96;96446.38;5026984;28;20198;-71
2021/10/02 06:01:41;;;;;;;1999.90;999.90;;;;;;;12.95;63.50;96444.78;5027164;28;20223;-71
2021/10/02 06:04:08;;;;;;;1999.90;999.90;;;;;;;13.28;64.02;96447.44;5027014;28;20250;-71
2021/10/02 06:06:35;;;;;;;1999.90;999.90;;;;;;;14.17;62.47;96445.28;5027085;28;20650;-70
2021/10/02 06:09:02;;;;;;;1999.90;999.90;;;;;;;14.96;58.94;96451.69;5026894;28;20202;-71
2021/10/02 06:11:29;;;;;;;1999.90;999.90;;;;;;;15.70;55.62;96448.59;5026682;28;20725;-71
2021/10/02 06:13:58;;;;;;;1999.90;999.90;;;;;;;15.68;55.45;96450.78;5027060;28;20230;-71
2021/10/02 06:16:25;;;;;;;1999.90;999.90;;;;;;;15.23;56.77;96448.19;5026747;28;20202;-71
2021/10/02 06:18:52;;;;;;;1999.90;999.90;;;;;;;14.88;58.06;96449.03;5027050;28;20623;-71
2021/10/02 06:21:20;;;;;;;1999.90;999.90;;;;;;;14.31;58.72;96443.41;5026778;28;20701;-70
2021/10/02 06:23:47;;;;;;;1999.90;999.90;;;;;;;13.70;60.29;96447.19;5027022;28;20259;-70
2021/10/02 06:26:14;;;;;;;1999.90;999.90;;;;;;;13.31;62.49;96449.47;5026872;28;20261;-70
2021/10/02 06:28:41;;;;;;;1999.90;999.90;;;;;;;13.21;63.66;96445.19;5026838;28;20280;-70
2021/10/02 06:31:09;;;;;;;1999.90;999.90;;;;;;;12.99;65.77;96446.84;5026834;28;20299;-70
2021/10/02 06:33:36;;;;;;;1999.90;999.90;;;;;;;12.90;65.28;96444.84;5026590;28;20209;-70
2021/10/02 06:36:03;;;;;;;1999.90;999.90;;;;;;;12.72;65.43;96443.03;5026726;28;20194;-70
2021/10/02 06:38:31;;;;;;;1999.90;999.90;;;;;;;12.64;66.43;96448.91;5026858;28;20193;-70
2021/10/02 06:40:58;;;;;;;1999.90;999.90;;;;;;;12.62;67.23;96452.84;5026717;28;20208;-70
2021/10/02 06:43:25;;;;;;;1999.90;999.90;;;;;;;12.61;68.55;96451.28;5026259;28;20240;-71
2021/10/02 06:45:52;;;;;;;1999.90;999.90;;;;;;;12.67;66.82;96450.16;5026219;28;20256;-71
2021/10/02 06:48:20;;;;;;;1999.90;999.90;;;;;;;12.78;66.87;96449.75;5026402;28;20201;-71
2021/10/02 06:50:47;;;;;;;1999.90;999.90;;;;;;;12.33;69.52;96445.94;5026368;28;20206;-71
2021/10/02 06:53:14;;;;;;;1999.90;999.90;;;;;;;12.36;69.38;96445.34;5026367;28;20201;-71
2021/10/02 06:55:41;;;;;;;1999.90;999.90;;;;;;;12.68;68.03;96443.88;5026292;28;20739;-71
2021/10/02 06:58:08;;;;;;;1999.90;999.90;;;;;;;12.86;68.03;96441.25;5026356;28;20235;-71
2021/10/02 07:00:35;;;;;;;1999.90;999.90;;;;;;;13.04;67.49;96442.31;5017709;28;20202;-71
2021/10/02 07:03:03;;;;;;;1999.90;999.90;;;;;;;13.26;63.96;96445.09;5006313;28;20256;-71
2021/10/02 07:05:31;;;;;;;1999.90;999.90;;;;;;;13.35;63.79;96435.53;5005756;28;20652;-71
2021/10/02 07:07:59;;;;;;;1999.90;999.90;;;;;;;13.14;65.01;96442.19;5006299;28;20631;-71
2021/10/02 07:10:26;;;;;;;1999.90;999.90;;;;;;;13.29;64.09;96441.16;5006130;28;20807;-70
2021/10/02 07:12:55;;;;;;;1999.90;999.90;;;;;;;13.43;64.69;96441.97;5006393;28;20256;-71
2021/10/02 07:15:22;;;;;;;1999.90;999.90;;;;;;;13.56;63.86;96445.63;5006098;28;20202;-71
2021/10/02 07:17:49;;;;;;;1999.90;999.90;;;;;;;13.62;61.81;96444.50;5006215;28;20202;-71
2021/10/02 07:20:17;;;;;;;1999.90;999.90;;;;;;;13.65;61.80;96434.25;5006056;28;20203;-71
2021/10/02 07:22:45;;;;;;;1999.90;999.90;;;;;;;13.57;63.19;96432.31;5006527;28;20207;-71
2021/10/02 07:25:14;;;;;;;1999.90;999.90;;;;;;;13.74;61.75;96431.75;5005981;28;20793;-71
2021/10/02 07:27:42;;;;;;;1999.90;999.90;;;;;;;13.93;60.97;96427.19;5006438;28;20195;-71
2021/10/02 07:30:11;;;;;;;1999.90;999.90;;;;;;;13.86;61.24;96428.63;5006052;28;20202;-71
2021/10/02 07:32:38;;;;;;;1999.90;999.90;;;;;;;13.95;59.61;96425.03;5006345;28;20267;-71
2021/10/02 07:35:07;;;;;;;1999.90;999.90;;;;;;;14.11;60.23;96420.28;5006766;28;20568;-71
2021/10/02 07:37:34;;;;;;;1999.90;999.90;;;;;;;13.96;61.35;96417.97;5024762;28;20619;-71
2021/10/02 07:40:02;;;;;;;1999.90;999.90;;;;;;;14.28;60.48;96415.25;5025858;28;20219;-71
2021/10/02 07:42:31;;;;;;;1999.90;999.90;;;;;;;14.53;60.33;96422.59;5025711;28;20266;-71
2021/10/02 07:45:02;;;;;;;1999.90;999.90;;;;;;;14.77;59.77;96427.53;5025342;28;20746;-71
2021/10/02 07:47:32;;;;;;;1999.90;999.90;;;;;;;14.81;58.18;96422.47;5025613;28;20186;-71
2021/10/02 07:50:01;;;;;;;1999.90;999.90;;;;;;;14.87;59.43;96421.31;5026075;28;20507;-71
2021/10/02 07:52:29;;;;;;;1999.90;999.90;;;;;;;14.53;58.82;96416.56;5025775;28;20205;-71
2021/10/02 07:54:56;;;;;;;1999.90;999.90;;;;;;;14.69;58.39;96419.63;5025454;28;20325;-71
2021/10/02 07:57:25;;;;;;;1999.90;999.90;;;;;;;14.73;58.64;96407.50;5025698;28;20284;-71
2021/10/02 07:59:53;;;;;;;1999.90;999.90;;;;;;;14.98;57.51;96406.91;5025644;28;20372;-72
2021/10/02 08:02:21;;;;;;;1999.90;999.90;;;;;;;15.35;56.31;96406.50;5025303;28;20662;-71
2021/10/02 08:04:48;;;;;;;1999.90;999.90;;;;;;;15.26;51.88;96402.28;5025574;28;20202;-71
2021/10/02 08:07:15;;;;;;;1999.90;999.90;;;;;;;15.37;50.26;96403.59;5025293;28;20236;-72
2021/10/02 08:09:43;;;;;;;1999.90;999.90;;;;;;;15.27;50.99;96399.38;5024980;28;20233;-71
2021/10/02 08:12:11;;;;;;;1999.90;999.90;;;;;;;15.52;50.96;96402.44;5025323;28;20200;-71
2021/10/02 08:14:40;;;;;;;1999.90;999.90;;;;;;;15.63;49.80;96396.66;5025647;28;20202;-72
2021/10/02 08:17:08;;;;;;;1999.90;999.90;;;;;;;15.65;51.41;96398.94;5028975;28;20285;-72
2021/10/02 08:19:36;;;;;;;1999.90;999.90;;;;;;;15.62;52.38;96392.47;5028591;28;20685;-71
2021/10/02 08:22:04;;;;;;;1999.90;999.90;;;;;;;16.03;50.19;96388.75;5028566;28;20483;-72
2021/10/02 08:24:32;;;;;;;1999.90;999.90;;;;;;;16.00;50.47;96395.34;5028779;28;20240;-71
2021/10/02 08:26:59;;;;;;;1999.90;999.90;;;;;;;15.83;49.27;96395.31;5029017;28;20222;-71
2021/10/02 08:29:27;;;;;;;1999.90;999.90;;;;;;;16.07;48.86;96400.16;5028722;28;20255;-72
2021/10/02 08:31:56;;;;;;;1999.90;999.90;;;;;;;15.72;49.23;96391.44;5028416;28;20255;-72
2021/10/02 08:34:23;;;;;;;1999.90;999.90;;;;;;;15.98;49.81;96387.03;5028460;28;20292;-71
2021/10/02 08:36:51;;;;;;;1999.90;999.90;;;;;;;16.18;50.47;96386.47;5028352;28;20316;-71
2021/10/02 08:39:18;;;;;;;1999.90;999.90;;;;;;;16.04;50.11;96382.44;5028572;28;20209;-72
2021/10/02 08:41:46;;;;;;;1999.90;999.90;;;;;;;16.03;52.48;96381.66;5028686;28;20229;-71
2021/10/02 08:44:17;;;;;;;1999.90;999.90;;;;;;;16.33;51.29;96378.16;5028654;28;20792;-71
2021/10/02 08:46:46;;;;;;;1999.90;999.90;;;;;;;16.34;50.78;96381.53;5028225;28;20206;-71
2021/10/02 08:49:43;;;;;;;1999.90;999.90;;;;;;;16.33;48.50;96383.41;5027094;28;20217;-71
2021/10/02 08:52:11;;;;;;;1999.90;999.90;;;;;;;16.46;48.36;96378.28;5017289;28;20212;-71
2021/10/02 08:54:41;;;;;;;1999.90;999.90;;;;;;;16.55;49.34;96374.59;5008602;28;20289;-70
2021/10/02 08:57:10;;;;;;;1999.90;999.90;;;;;;;16.57;49.74;96372.44;5008208;28;20195;-70
2021/10/02 08:59:39;;;;;;;1999.90;999.90;;;;;;;16.56;47.47;96375.38;5009067;28;20307;-71
2021/10/02 09:02:08;;;;;;;1999.90;999.90;;;;;;;16.61;47.72;96372.63;5027916;28;20194;-71
2021/10/02 09:04:38;;;;;;;1999.90;999.90;;;;;;;16.41;47.60;96368.72;5028156;28;20226;-71
2021/10/02 09:07:06;;;;;;;1999.90;999.90;;;;;;;16.62;47.34;96363.66;5027809;28;20222;-71
2021/10/02 09:09:34;;;;;;;1999.90;999.90;;;;;;;16.58;50.24;96362.72;5027839;28;20238;-70
2021/10/02 09:12:03;;;;;;;1999.90;999.90;;;;;;;16.70;49.13;96357.63;5027874;28;20197;-72
2021/10/02 09:14:30;;;;;;;1999.90;999.90;;;;;;;17.09;46.38;96351.38;5028078;28;20198;-71
2021/10/02 09:16:57;;;;;;;1999.90;999.90;;;;;;;16.69;49.43;96348.19;5027761;28;20197;-72
2021/10/02 09:19:24;;;;;;;1999.90;999.90;;;;;;;16.82;49.26;96347.28;5027884;28;20681;-72
2021/10/02 09:22:03;;;;;;;1999.90;999.90;;;;;;;16.94;49.28;96352.66;5027638;28;20251;-71
2021/10/02 09:24:33;;;;;;;1999.90;999.90;;;;;;;17.23;47.96;96346.72;5028103;28;20665;-71
2021/10/02 09:27:01;;;;;;;1999.90;999.90;;;;;;;17.43;48.00;96340.00;5027287;28;20281;-71
2021/10/02 09:29:39;;;;;;;1999.90;999.90;;;;;;;17.49;47.44;96338.72;5027896;28;20282;-71
2021/10/02 09:32:10;;;;;;;1999.90;999.90;;;;;;;17.53;46.26;96335.13;5027810;28;20584;-71
2021/10/02 09:34:49;;;;;;;1999.90;999.90;;;;;;;17.45;48.21;96325.44;5026965;28;20949;-71
2021/10/02 09:37:23;;;;;;;1999.90;999.90;;;;;;;17.52;46.40;96319.69;5027520;28;20662;-71
2021/10/02 09:39:51;;;;;;;1999.90;999.90;;;;;;;17.59;45.79;96327.88;5027711;28;20243;-71
2021/10/02 09:42:22;;;;;;;1999.90;999.90;;;;;;;17.64;46.19;96322.44;5027293;28;20194;-71
2021/10/02 09:44:49;;;;;;;1999.90;999.90;;;;;;;17.91;46.11;96319.34;5027507;28;20567;-71
2021/10/02 09:47:16;;;;;;;1999.90;999.90;;;;;;;17.80;45.54;96320.03;5027592;28;20791;-71
2021/10/02 09:49:45;;;;;;;1999.90;999.90;;;;;;;17.72;45.52;96329.53;5027250;28;20210;-71
2021/10/02 09:55:26;;;;;;;1999.90;999.90;;;;;;;17.99;45.22;96313.25;5086406;28;20548;-71
2021/10/02 09:57:56;;;;;;;1999.90;999.90;;;;;;;18.08;42.35;96312.44;5086372;28;20199;-70
2021/10/02 10:00:25;;;;;;;1999.90;999.90;;;;;;;18.02;41.36;96303.97;5086446;28;20257;-71
2021/10/02 10:02:53;;;;;;;1999.90;999.90;;;;;;;17.84;42.11;96313.81;5086438;28;20203;-72
2021/10/02 10:05:20;;;;;;;1999.90;999.90;;;;;;;17.98;41.71;96311.69;5086110;28;20640;-71
2021/10/02 10:07:56;;;;;;;1999.90;999.90;;;;;;;18.01;41.06;96305.81;5086569;28;20203;-71
2021/10/02 10:10:26;;;;;;;1999.90;999.90;;;;;;;18.06;41.72;96300.38;5086007;28;20547;-72
2021/10/02 10:12:53;;;;;;;1999.90;999.90;;;;;;;18.02;42.14;96303.97;5086015;28;20204;-71
2021/10/02 10:15:30;;;;;;;1999.90;999.90;;;;;;;18.17;41.54;96303.38;5086031;28;20199;-71
2021/10/02 10:17:57;;;;;;;1999.90;999.90;;;;;;;18.12;41.54;96303.59;5085984;28;20609;-71
2021/10/02 10:20:37;;;;;;;1999.90;999.90;;;;;;;18.08;42.26;96301.91;5085965;28;20200;-71
2021/10/02 10:23:05;;;;;;;1999.90;999.90;;;;;;;18.32;41.50;96307.28;5086209;28;20184;-72
2021/10/02 10:25:35;;;;;;;1999.90;999.90;;;;;;;18.37;41.06;96305.25;5085800;28;20200;-72
2021/10/02 10:28:05;;;;;;;1999.90;999.90;;;;;;;18.33;41.92;96303.59;5086009;28;20253;-71
2021/10/02 10:30:36;;;;;;;1999.90;999.90;;;;;;;18.43;41.86;96300.56;5085680;28;20194;-72
2021/10/02 10:33:07;;;;;;;1999.90;999.90;;;;;;;18.56;41.40;96294.25;5085660;28;20275;-71
2021/10/02 10:35:36;;;;;;;1999.90;999.90;;;;;;;18.75;42.43;96296.38;5085995;28;20184;-72
2021/10/02 10:38:04;;;;;;;1999.90;999.90;;;;;;;18.81;41.89;96287.97;5085638;28;20303;-72
2021/10/02 10:40:31;;;;;;;1999.90;999.90;;;;;;;18.77;42.03;96295.00;5085910;28;20196;-71
2021/10/02 10:42:59;;;;;;;1999.90;999.90;;;;;;;18.56;40.38;96286.38;5085626;28;20208;-72
2021/10/02 10:45:27;;;;;;;1999.90;999.90;;;;;;;18.64;41.50;96282.88;5085859;28;20671;-71
2021/10/02 10:47:56;;;;;;;1999.90;999.90;;;;;;;18.73;41.88;96286.19;5085366;28;20196;-71
2021/10/02 10:50:23;;;;;;;1999.90;999.90;;;;;;;18.77;41.92;96278.41;5085463;28;20577;-71
2021/10/02 10:52:51;;;;;;;1999.90;999.90;;;;;;;18.88;41.51;96282.16;5085126;28;20188;-71
2021/10/02 10:55:21;;;;;;;1999.90;999.90;;;;;;;18.82;41.01;96283.47;5085103;28;20632;-72
2021/10/02 10:57:49;;;;;;;1999.90;999.90;;;;;;;18.61;41.57;96266.94;5085507;28;20204;-71
2021/10/02 11:00:21;;;;;;;1999.90;999.90;;;;;;;18.70;40.78;96263.13;5085035;28;20585;-71
2021/10/02 11:02:51;;;;;;;1999.90;999.90;;;;;;;18.79;41.31;96268.31;5085144;28;20644;-71
2021/10/02 11:06:01;;;;;;;1999.90;999.90;;;;;;;18.77;39.87;96258.13;5077551;28;20192;-72
2021/10/02 11:09:06;;;;;;;1999.90;999.90;;;;;;;18.60;40.24;96258.28;5071917;28;20192;-72
2021/10/02 11:11:56;;;;;;;1999.90;999.90;;;;;;;18.52;41.23;96248.59;5051101;28;20211;-71
2021/10/02 11:14:26;;;;;;;1999.90;999.90;;;;;;;18.78;42.11;96249.09;5071481;28;20774;-72
2021/10/02 11:17:03;;;;;;;1999.90;999.90;;;;;;;19.02;41.31;96234.44;5071406;28;20200;-72
2021/10/02 11:19:32;;;;;;;1999.90;999.90;;;;;;;19.11;40.20;96237.72;5071459;28;20580;-71
2021/10/02 11:22:40;;;;;;;1999.90;999.90;;;;;;;19.21;41.62;96226.75;5071276;28;20680;-72
2021/10/02 11:25:17;;;;;;;1999.90;999.90;;;;;;;19.24;39.83;96234.00;5059836;28;20207;-71
2021/10/02 11:27:44;;;;;;;1999.90;999.90;;;;;;;19.17;39.42;96237.19;5071655;28;20192;-71
2021/10/02 11:30:14;;;;;;;1999.90;999.90;;;;;;;18.84;39.33;96236.50;5071504;28;20205;-71
2021/10/02 11:32:44;;;;;;;1999.90;999.90;;;;;;;18.63;39.84;96239.19;5071168;28;20181;-71
2021/10/02 11:35:26;;;;;;;1999.90;999.90;;;;;;;18.89;40.39;96234.41;5070771;28;20738;-71
2021/10/02 11:37:57;;;;;;;1999.90;999.90;;;;;;;18.91;40.94;96229.59;5071670;28;20185;-72
2021/10/02 11:40:51;;;;;;;1999.90;999.90;;;;;;;19.08;39.84;96219.97;5071202;28;20217;-72
2021/10/02 11:43:30;;;;;;;1999.90;999.90;;;;;;;19.19;38.48;96215.75;5057286;28;20299;-71
2021/10/02 11:46:07;;;;;;;1999.90;999.90;;;;;;;19.14;38.42;96213.34;5071188;28;20207;-71
2021/10/02 11:48:47;;;;;;;1999.90;999.90;;;;;;;19.13;38.47;96203.91;5071116;28;20203;-72
2021/10/02 11:51:20;;;;;;;1999.90;999.90;;;;;;;19.09;38.54;96210.94;5071178;28;20219;-72
2021/10/02 11:53:49;;;;;;;1999.90;999.90;;;;;;;19.25;38.44;96211.81;5070413;28;20286;-72
2021/10/02 11:56:20;;;;;;;1999.90;999.90;;;;;;;19.20;38.64;96212.03;5070957;28;20200;-72
2021/10/02 11:58:50;;;;;;;1999.90;999.90;;;;;;;19.44;38.70;96216.50;5070741;28;20192;-72
2021/10/02 12:01:19;;;;;;;1999.90;999.90;;;;;;;19.71;37.43;96207.94;5070827;28;20215;-72
2021/10/02 12:03:48;;;;;;;1999.90;999.90;;;;;;;19.67;37.19;96212.34;5070547;28;20291;-72